Главная страница
METAR-TAF:

METAR-TAF

Аэропорты :

Chautauqua County/Dunkirk Airport

Dunkirk, Нью-Йорк, США

широта: 42-29-35N, долгота: 079-16-33W, высота над уровнем моря: 211 м

Текущие метеонаблюдения

Эта сводка был подготовлена 1 час и 0 минут назад, в 12:53 UTC
Ветер 21 Узел от южный с порывами до 35 Узел
Температура 17°C
Влажность 72%
Давление 993 hPa
Видимость: 16.1 км
Сплошная облачность на высоте 9000 фута

METAR: KDKK 261253Z AUTO 17021G35KT 10SM OVC090 17/12 A2931 RMK AO2 PK WND 17035/1248 SLP922 T01670117

Время: 09:53 (13:53 UTC)


TAF: отсутствует

Метеонаблюдения и прогнозы для более 4000 аэропортов (сводки METAR и TAF).

Имеющиеся станции представлены на карте желтыми и красными точками.

Чтобы увидеть название станции, наведите на нее мышь.

Затем щелкните, чтобы увидеть метеонаблюдения и метеопрогнозы.

Управление картой: чтобы увеличить масштаб, щелкните зеленые кнопки с черным крестиком; чтобы уменьшить масштаб, щелкните зеленую кнопку с тире; для просмотра соседних карт щелкайте зеленые стрелки.


METAR-TAF: